createdAt,value
2019-06-26T00:01:56.923Z,8.69
2019-06-26T00:07:05.234Z,8.50
2019-06-26T00:12:12.991Z,8.27
2019-06-26T00:17:20.789Z,8.55
2019-06-26T00:22:29.526Z,9.15
2019-06-26T00:27:37.232Z,9.35
2019-06-26T00:32:45.023Z,9.15
2019-06-26T00:37:53.265Z,9.23
2019-06-26T00:43:01.058Z,8.80
2019-06-26T00:48:09.615Z,11.06
2019-06-26T00:53:17.601Z,9.32
2019-06-26T00:58:25.570Z,9.43
2019-06-26T01:03:33.282Z,9.60
2019-06-26T01:08:41.246Z,9.18
2019-06-26T01:13:57.826Z,9.92
2019-06-26T01:18:56.141Z,9.43
2019-06-26T01:24:04.084Z,9.86
2019-06-26T01:29:11.794Z,11.25
2019-06-26T01:34:19.757Z,10.72
2019-06-26T01:39:27.570Z,10.58
2019-06-26T01:44:35.447Z,11.61
2019-06-26T01:49:43.214Z,12.01
2019-06-26T01:54:51.706Z,13.03
2019-06-26T01:59:59.424Z,12.24
2019-06-26T02:05:07.419Z,13.58
2019-06-26T02:10:15.281Z,12.77
2019-06-26T02:15:23.281Z,13.17
2019-06-26T02:20:31.095Z,12.09
2019-06-26T02:25:38.908Z,13.59
2019-06-26T02:30:46.596Z,13.51
2019-06-26T02:35:54.447Z,12.27
2019-06-26T02:41:02.230Z,12.16
2019-06-26T02:46:10.091Z,12.12
2019-06-26T02:51:17.914Z,13.44
2019-06-26T02:56:27.343Z,11.67
2019-06-26T03:01:36.140Z,11.71
2019-06-26T03:06:44.477Z,12.00
2019-06-26T03:11:52.353Z,11.66
2019-06-26T03:17:00.265Z,11.93
2019-06-26T03:22:07.971Z,12.02
2019-06-26T03:27:15.812Z,12.83
2019-06-26T03:32:23.549Z,12.78
2019-06-26T03:37:31.465Z,12.11
2019-06-26T03:42:39.326Z,13.31
2019-06-26T03:47:47.384Z,12.29
2019-06-26T03:52:56.179Z,13.61
2019-06-26T03:58:03.953Z,12.87
2019-06-26T04:03:11.694Z,15.13
2019-06-26T04:08:19.423Z,16.48
2019-06-26T04:13:27.563Z,14.46
2019-06-26T04:18:35.650Z,16.07
2019-06-26T04:23:44.550Z,15.53
2019-06-26T04:28:52.811Z,18.46
2019-06-26T04:34:00.556Z,18.98
2019-06-26T04:39:08.551Z,17.55
2019-06-26T04:44:16.338Z,17.67
2019-06-26T04:49:24.764Z,22.87
2019-06-26T04:54:33.694Z,19.27
2019-06-26T04:59:41.582Z,23.16
2019-06-26T05:04:49.278Z,21.59
2019-06-26T05:09:57.126Z,24.76
2019-06-26T05:15:04.864Z,24.64
2019-06-26T05:20:12.676Z,27.15
2019-06-26T05:25:20.454Z,24.03
2019-06-26T05:30:28.249Z,25.94
2019-06-26T05:35:36.062Z,26.92
2019-06-26T05:40:43.824Z,27.44
2019-06-26T05:45:51.625Z,28.22
2019-06-26T05:50:59.525Z,26.90
2019-06-26T05:56:07.224Z,26.99
2019-06-26T06:01:15.018Z,26.59
2019-06-26T06:06:23.639Z,25.14
2019-06-26T06:11:31.574Z,26.52
2019-06-26T06:16:47.437Z,21.76
2019-06-26T06:21:46.705Z,14.92
2019-06-26T06:26:54.469Z,10.82
2019-06-26T06:32:02.351Z,14.90
2019-06-26T06:37:10.073Z,12.47
2019-06-26T06:42:17.918Z,10.02
2019-06-26T06:47:25.647Z,14.57
2019-06-26T06:52:33.426Z,11.74
2019-06-26T06:57:41.482Z,9.52
2019-06-26T07:02:50.046Z,10.77
2019-06-26T07:07:57.798Z,8.09
2019-06-26T07:13:05.709Z,9.04
2019-06-26T07:18:13.588Z,10.24
2019-06-26T07:23:21.555Z,10.27
2019-06-26T07:28:29.662Z,11.93
2019-06-26T07:33:37.629Z,10.42
2019-06-26T07:38:45.313Z,9.18
2019-06-26T07:43:53.222Z,8.83
2019-06-26T07:49:00.851Z,9.03
2019-06-26T07:54:08.793Z,7.62
2019-06-26T07:59:17.664Z,7.17
2019-06-26T08:04:25.557Z,10.06
2019-06-26T08:09:33.321Z,8.14
2019-06-26T08:14:41.110Z,12.80
2019-06-26T08:19:49.273Z,10.57
2019-06-26T08:24:58.035Z,7.31
2019-06-26T08:30:07.058Z,7.63
2019-06-26T08:35:14.849Z,10.28
2019-06-26T08:40:22.624Z,8.98
2019-06-26T08:45:30.482Z,10.54
2019-06-26T08:50:38.090Z,9.31
2019-06-26T08:55:46.585Z,6.94
2019-06-26T09:00:54.313Z,11.21
2019-06-26T09:06:02.151Z,6.86
2019-06-26T09:11:10.050Z,8.49
2019-06-26T09:16:17.966Z,7.31
2019-06-26T09:21:25.700Z,7.65
2019-06-26T09:26:33.549Z,9.56
2019-06-26T09:31:41.290Z,5.08
2019-06-26T09:36:49.805Z,7.62
2019-06-26T09:41:57.942Z,6.57
2019-06-26T09:47:05.803Z,9.62
2019-06-26T09:52:13.439Z,6.69
2019-06-26T09:57:21.261Z,7.39
2019-06-26T10:02:29.002Z,6.14
2019-06-26T10:07:37.479Z,7.55
2019-06-26T10:12:44.928Z,8.02
2019-06-26T10:17:52.726Z,7.35
2019-06-26T10:23:00.785Z,6.07
2019-06-26T10:28:08.625Z,7.16
2019-06-26T10:33:16.289Z,5.59
2019-06-26T10:38:24.018Z,6.98
2019-06-26T10:43:32.339Z,9.26
2019-06-26T10:48:39.943Z,9.68
2019-06-26T10:53:47.770Z,8.96
2019-06-26T10:58:55.458Z,8.27
2019-06-26T11:04:03.334Z,7.03
2019-06-26T11:09:11.104Z,8.38
2019-06-26T11:14:18.692Z,10.18
2019-06-26T11:19:39.482Z,8.34
2019-06-26T11:24:33.985Z,7.60
2019-06-26T11:29:41.714Z,6.88
2019-06-26T11:34:49.807Z,7.59
2019-06-26T11:39:57.614Z,9.55
2019-06-26T11:45:05.492Z,9.05
2019-06-26T11:50:13.303Z,8.68
2019-06-26T11:55:21.213Z,8.12
2019-06-26T12:00:29.085Z,10.40
2019-06-26T12:05:37.946Z,9.80
2019-06-26T12:10:45.768Z,11.20
2019-06-26T12:15:53.678Z,8.14
2019-06-26T12:21:01.831Z,9.19
2019-06-26T12:26:09.802Z,12.45
2019-06-26T12:31:17.812Z,12.33
2019-06-26T12:36:25.597Z,7.47
2019-06-26T12:41:33.324Z,9.21
2019-06-26T12:46:41.193Z,8.40
2019-06-26T12:51:48.988Z,8.94
2019-06-26T12:56:57.004Z,8.18
2019-06-26T13:02:04.832Z,9.63
2019-06-26T13:07:12.616Z,8.62
2019-06-26T13:12:20.546Z,7.84
2019-06-26T13:17:28.233Z,8.66
2019-06-26T13:22:36.731Z,7.25
2019-06-26T13:27:44.470Z,6.63
2019-06-26T13:32:52.260Z,9.35
2019-06-26T13:38:00.038Z,8.79
2019-06-26T13:43:07.934Z,8.70
2019-06-26T13:48:15.689Z,10.24
2019-06-26T13:53:23.603Z,12.15
2019-06-26T13:58:31.250Z,8.76
2019-06-26T14:03:42.452Z,8.28
2019-06-26T14:08:40.086Z,9.22
2019-06-26T14:13:48.077Z,8.51
2019-06-26T14:18:55.917Z,8.65
2019-06-26T14:24:03.538Z,9.01
2019-06-26T14:29:20.406Z,9.85
2019-06-26T14:34:18.534Z,9.08
2019-06-26T14:39:26.360Z,8.42
2019-06-26T14:44:33.985Z,9.21
2019-06-26T14:49:41.655Z,8.39
2019-06-26T14:54:49.304Z,10.20
2019-06-26T14:59:57.122Z,11.23
2019-06-26T15:05:04.754Z,8.59
2019-06-26T15:10:12.557Z,10.47
2019-06-26T15:15:20.361Z,9.60
2019-06-26T15:20:28.180Z,9.39
2019-06-26T15:25:35.853Z,9.28
2019-06-26T15:30:43.530Z,9.85
2019-06-26T15:35:51.165Z,9.00
2019-06-26T15:40:58.947Z,7.64
2019-06-26T15:46:06.696Z,10.77
2019-06-26T15:51:14.608Z,8.49
2019-06-26T15:56:22.509Z,11.33
2019-06-26T16:01:30.135Z,9.57
2019-06-26T16:06:38.006Z,41.23
2019-06-26T16:11:45.913Z,7.61
2019-06-26T16:16:53.653Z,9.81
2019-06-26T16:22:01.376Z,6.34
2019-06-26T16:27:09.025Z,6.83
2019-06-26T16:32:16.835Z,7.49
2019-06-26T16:37:24.505Z,5.96
2019-06-26T16:42:32.246Z,5.40
2019-06-26T16:47:40.052Z,7.36
2019-06-26T16:52:49.120Z,6.28
2019-06-26T16:57:55.070Z,6.32
2019-06-26T17:03:02.855Z,6.10
2019-06-26T17:08:10.725Z,7.01
2019-06-26T17:13:19.372Z,9.09
2019-06-26T17:18:27.050Z,6.11
2019-06-26T17:23:35.739Z,5.38
2019-06-26T17:28:43.377Z,11.17
2019-06-26T17:33:51.150Z,5.01
2019-06-26T17:38:58.905Z,5.73
2019-06-26T17:44:06.775Z,5.86
2019-06-26T17:49:14.646Z,5.87
2019-06-26T17:54:22.313Z,12.11
2019-06-26T17:59:30.117Z,8.23
2019-06-26T18:04:38.316Z,6.96
2019-06-26T18:09:46.213Z,7.71
2019-06-26T18:14:53.828Z,9.40
2019-06-26T18:20:02.021Z,8.19
2019-06-26T18:25:09.723Z,9.31
2019-06-26T18:30:17.384Z,9.38
2019-06-26T18:35:25.073Z,9.17
2019-06-26T18:40:32.894Z,9.41
2019-06-26T18:45:40.765Z,7.68
2019-06-26T18:50:48.668Z,8.70
2019-06-26T18:55:56.353Z,9.36
2019-06-26T19:01:04.013Z,10.40
2019-06-26T19:06:11.851Z,10.09
2019-06-26T19:11:19.694Z,11.61
2019-06-26T19:16:27.733Z,7.71
2019-06-26T19:21:37.099Z,13.45
2019-06-26T19:26:42.813Z,10.06
2019-06-26T19:31:50.554Z,7.51
2019-06-26T19:36:58.371Z,9.28
2019-06-26T19:42:06.016Z,9.23
2019-06-26T19:47:13.710Z,10.40
2019-06-26T19:52:21.574Z,8.26
2019-06-26T19:57:29.509Z,8.66
2019-06-26T20:02:37.530Z,9.69
2019-06-26T20:07:45.245Z,9.15
2019-06-26T20:12:53.029Z,8.52
2019-06-26T20:18:04.138Z,10.09
2019-06-26T20:23:08.120Z,7.80
2019-06-26T20:28:15.878Z,11.15
2019-06-26T20:33:23.521Z,9.71
2019-06-26T20:38:31.341Z,7.82
2019-06-26T20:43:39.223Z,8.83
2019-06-26T20:48:47.052Z,8.57
2019-06-26T20:53:54.857Z,6.89
2019-06-26T20:59:02.824Z,7.31
2019-06-26T21:04:10.470Z,5.74
2019-06-26T21:09:18.309Z,7.92
2019-06-26T21:14:25.934Z,5.73
2019-06-26T21:19:33.685Z,5.93
2019-06-26T21:24:41.510Z,8.42
2019-06-26T21:29:49.156Z,8.60
2019-06-26T21:34:56.911Z,7.47
2019-06-26T21:40:04.619Z,6.77
2019-06-26T21:45:12.253Z,9.62
2019-06-26T21:50:20.041Z,7.14
2019-06-26T21:55:34.133Z,7.56
2019-06-26T22:00:35.213Z,7.68
2019-06-26T22:05:42.957Z,9.32
2019-06-26T22:10:50.687Z,9.09
2019-06-26T22:15:58.389Z,7.26
2019-06-26T22:21:06.067Z,9.48
2019-06-26T22:26:14.439Z,9.36
2019-06-26T22:31:21.171Z,10.26
2019-06-26T22:36:28.905Z,9.28
2019-06-26T22:41:36.712Z,12.71
2019-06-26T22:46:44.599Z,9.04
2019-06-26T22:51:52.262Z,12.29
2019-06-26T22:57:00.101Z,11.58
2019-06-26T23:02:07.974Z,10.06
2019-06-26T23:07:15.682Z,12.46
2019-06-26T23:12:23.587Z,12.25
2019-06-26T23:17:31.245Z,11.72
2019-06-26T23:22:39.003Z,14.03
2019-06-26T23:27:46.803Z,13.14
2019-06-26T23:32:54.481Z,11.06
2019-06-26T23:38:02.466Z,12.47
2019-06-26T23:43:10.344Z,11.77
2019-06-26T23:48:18.159Z,11.76
2019-06-26T23:53:25.872Z,11.93
2019-06-26T23:58:33.555Z,13.03
